Time;durP1;ratioP1;P1;durP2;ratioP2;P2;SDS_P1;SDS_P2;PMS_P1;PMS_P2;Temp;Humidity;BMP_temperature;BMP_pressure;BME280_temperature;BME280_humidity;BME280_pressure;Samples;Min_cycle;Max_cycle;Signal;HPM_P1;HPM_P2
2022/11/19 00:01:08;;;;;;;7.83;4.60;;;8.60;99.90;;;;;;6130232;23;20181;-39
2022/11/19 00:03:35;;;;;;;6.30;4.27;;;8.50;99.90;;;;;;6156737;23;20174;-42
2022/11/19 00:06:06;;;;;;;6.30;4.83;;;8.60;99.90;;;;;;6156463;23;20154;-43
2022/11/19 00:08:32;;;;;;;8.87;5.33;;;8.60;99.90;;;;;;6156440;23;20175;-41
2022/11/19 00:11:10;;;;;;;7.13;4.47;;;8.60;99.90;;;;;;6157178;23;20281;-49
2022/11/19 00:13:37;;;;;;;7.13;4.93;;;8.50;99.90;;;;;;6158241;23;20158;-50
2022/11/19 00:16:13;;;;;;;7.73;4.63;;;8.60;99.90;;;;;;6158147;23;20172;-50
2022/11/19 00:18:40;;;;;;;6.27;4.73;;;8.60;99.90;;;;;;6157932;23;20227;-51
2022/11/19 00:21:11;;;;;;;7.63;4.80;;;8.60;99.90;;;;;;6157573;23;20182;-45
2022/11/19 00:23:37;;;;;;;6.07;4.63;;;8.50;99.90;;;;;;6156606;23;20146;-44
2022/11/19 00:26:13;;;;;;;5.50;4.50;;;8.50;99.90;;;;;;6156590;23;20164;-44
2022/11/19 00:28:40;;;;;;;7.17;4.57;;;8.50;99.90;;;;;;6156181;23;20685;-44
2022/11/19 00:31:12;;;;;;;6.17;5.33;;;8.50;99.90;;;;;;6156755;23;20158;-44
2022/11/19 00:33:39;;;;;;;8.53;5.03;;;8.60;99.90;;;;;;6156424;23;20187;-43
2022/11/19 00:36:08;;;;;;;6.17;4.73;;;8.50;99.90;;;;;;6156463;23;20162;-44
2022/11/19 00:38:34;;;;;;;8.83;4.77;;;8.50;99.90;;;;;;6155868;23;20188;-44
2022/11/19 00:41:00;;;;;;;5.83;4.93;;;8.50;99.90;;;;;;6156295;23;20184;-45
2022/11/19 00:46:10;;;;;;;12.17;5.53;;;8.50;99.90;;;;;;6156486;23;20235;-46
2022/11/19 00:48:37;;;;;;;6.73;5.43;;;8.60;99.90;;;;;;6155927;23;20209;-45
2022/11/19 00:51:03;;;;;;;7.53;6.10;;;8.50;99.90;;;;;;6155926;23;20591;-46
2022/11/19 00:53:28;;;;;;;6.20;5.60;;;8.50;99.90;;;;;;6156015;23;20166;-46
2022/11/19 00:55:54;;;;;;;9.70;6.23;;;8.60;99.90;;;;;;6155968;23;20161;-46
2022/11/19 00:58:20;;;;;;;8.13;5.83;;;8.60;99.90;;;;;;6156241;23;20262;-43
2022/11/19 01:00:46;;;;;;;9.50;6.47;;;8.60;99.90;;;;;;6155812;23;20292;-44
2022/11/19 01:03:11;;;;;;;8.83;7.03;;;8.50;99.90;;;;;;6156287;23;20158;-44
2022/11/19 01:05:37;;;;;;;6.37;5.70;;;8.50;99.90;;;;;;6156244;23;20241;-44
2022/11/19 01:08:03;;;;;;;9.40;6.90;;;8.60;99.90;;;;;;6156138;23;20178;-43
2022/11/19 01:10:29;;;;;;;10.17;6.87;;;8.60;99.90;;;;;;6155789;23;20213;-45
2022/11/19 01:15:38;;;;;;;9.50;6.80;;;8.60;99.90;;;;;;6156002;23;20606;-44
2022/11/19 01:18:04;;;;;;;8.13;6.77;;;8.60;99.90;;;;;;6155785;23;20241;-46
2022/11/19 01:20:30;;;;;;;8.43;7.33;;;8.60;99.90;;;;;;6129781;23;20182;-44
2022/11/19 01:22:55;;;;;;;10.47;7.23;;;8.60;99.90;;;;;;6156279;23;20157;-45
2022/11/19 01:25:21;;;;;;;9.73;7.77;;;8.60;99.90;;;;;;6158859;23;20154;-45
2022/11/19 01:27:46;;;;;;;8.43;6.93;;;8.60;99.90;;;;;;6158072;23;20177;-44
2022/11/19 01:30:12;;;;;;;8.20;7.40;;;8.50;99.90;;;;;;6157756;23;20162;-43
2022/11/19 01:32:38;;;;;;;8.90;7.80;;;8.50;99.90;;;;;;6157792;23;20158;-45
2022/11/19 01:35:04;;;;;;;8.90;7.30;;;8.50;99.90;;;;;;6157732;23;20547;-45
2022/11/19 01:37:29;;;;;;;7.10;6.03;;;8.60;99.90;;;;;;6157872;23;20153;-46
2022/11/19 01:39:55;;;;;;;6.90;5.63;;;8.50;99.90;;;;;;6157676;23;20184;-45
2022/11/19 01:45:39;;;;;;;8.53;6.80;;;8.30;99.90;;;;;;6158144;23;20189;-44
2022/11/19 01:48:08;;;;;;;10.37;6.30;;;8.10;99.90;;;;;;6157490;23;20232;-45
2022/11/19 01:50:38;;;;;;;7.97;6.73;;;8.00;99.90;;;;;;6157972;23;20667;-45
2022/11/19 01:53:07;;;;;;;9.83;6.70;;;8.00;99.90;;;;;;6157656;23;20224;-46
2022/11/19 01:55:33;;;;;;;8.63;7.50;;;7.90;99.90;;;;;;6157537;23;20228;-45
2022/11/19 01:58:00;;;;;;;8.83;7.03;;;7.80;99.90;;;;;;6157463;23;20178;-45
2022/11/19 02:00:27;;;;;;;9.60;6.83;;;7.70;99.90;;;;;;6157437;23;20663;-45
2022/11/19 02:02:53;;;;;;;9.73;7.03;;;7.70;99.90;;;;;;6157887;23;20161;-44
2022/11/19 02:05:19;;;;;;;9.60;7.20;;;7.50;99.90;;;;;;6157561;23;20162;-45
2022/11/19 02:07:54;;;;;;;8.17;6.80;;;7.40;99.90;;;;;;6157438;23;20556;-45
2022/11/19 02:10:29;;;;;;;9.90;5.67;;;7.30;99.90;;;;;;6157569;23;20146;-44
2022/11/19 02:12:54;;;;;;;7.50;5.60;;;7.10;99.90;;;;;;6157824;23;20224;-44
2022/11/19 02:15:24;;;;;;;7.67;5.30;;;7.00;99.90;;;;;;6157757;23;20525;-44
2022/11/19 02:18:07;;;;;;;7.23;5.23;;;6.90;99.90;;;;;;6157362;23;20301;-45
2022/11/19 02:20:49;;;;;;;6.33;4.93;;;6.80;99.90;;;;;;6157199;23;20173;-45
2022/11/19 02:23:48;;;;;;;7.23;4.63;;;6.70;99.90;;;;;;6157475;23;20484;-44
2022/11/19 02:26:49;;;;;;;5.40;4.40;;;6.60;99.90;;;;;;6157698;23;20262;-44
2022/11/19 02:29:30;;;;;;;4.27;3.87;;;6.50;99.90;;;;;;6157371;23;20170;-46
2022/11/19 02:32:04;;;;;;;4.83;3.63;;;6.40;99.90;;;;;;6157628;23;20182;-44
2022/11/19 02:34:37;;;;;;;4.60;3.63;;;6.30;99.90;;;;;;6157429;23;20483;-46
2022/11/19 02:37:15;;;;;;;4.37;3.47;;;6.20;99.90;;;;;;6158241;23;20198;-47
2022/11/19 02:39:47;;;;;;;4.23;3.70;;;6.20;99.90;;;;;;6157373;23;20188;-49
2022/11/19 02:42:45;;;;;;;4.60;3.57;;;6.10;99.90;;;;;;6157410;23;20223;-48
2022/11/19 02:45:22;;;;;;;4.57;3.80;;;6.00;99.90;;;;;;6141259;23;20177;-50
2022/11/19 02:47:59;;;;;;;5.93;3.87;;;6.00;99.90;;;;;;6157030;23;20173;-47
2022/11/19 02:50:47;;;;;;;8.00;3.60;;;5.80;99.90;;;;;;6157376;23;20142;-47
2022/11/19 02:53:13;;;;;;;4.57;3.77;;;5.80;99.90;;;;;;6157379;23;20141;-48
2022/11/19 02:55:40;;;;;;;5.70;3.50;;;5.70;99.90;;;;;;6156989;23;20158;-48
2022/11/19 02:58:10;;;;;;;4.13;3.23;;;5.70;99.90;;;;;;6157216;23;20212;-47
2022/11/19 03:06:21;;;;;;;4.47;3.90;;;5.50;99.90;;;;;;6157103;23;20220;-48
2022/11/19 03:08:47;;;;;;;4.10;3.63;;;5.30;99.90;;;;;;6157711;23;20187;-48
2022/11/19 03:11:25;;;;;;;4.63;4.03;;;5.20;99.90;;;;;;6157061;23;20543;-47
2022/11/19 03:16:49;;;;;;;3.97;3.57;;;5.10;99.90;;;;;;6157122;23;20196;-48
2022/11/19 03:19:25;;;;;;;5.10;4.30;;;5.00;99.90;;;;;;6156908;23;20205;-48
2022/11/19 03:21:56;;;;;;;4.83;3.80;;;5.00;99.90;;;;;;6157151;23;20173;-49
2022/11/19 03:24:39;;;;;;;4.87;3.80;;;4.90;99.90;;;;;;6157534;23;20138;-48
2022/11/19 03:27:45;;;;;;;4.37;3.67;;;4.90;99.90;;;;;;6157103;23;20142;-48
2022/11/19 03:30:12;;;;;;;5.63;3.83;;;4.80;99.90;;;;;;6038299;23;20164;-49
2022/11/19 03:32:49;;;;;;;4.83;4.00;;;4.80;99.90;;;;;;6038156;23;20170;-49
2022/11/19 03:35:19;;;;;;;5.13;4.27;;;4.80;99.90;;;;;;6105255;23;20496;-48
2022/11/19 03:37:49;;;;;;;4.40;3.83;;;4.70;99.90;;;;;;6156686;23;20181;-49
2022/11/19 03:40:17;;;;;;;5.60;4.47;;;4.70;99.90;;;;;;6156976;23;20640;-48
2022/11/19 03:42:45;;;;;;;5.50;4.47;;;4.70;99.90;;;;;;6156742;23;20234;-48
2022/11/19 03:45:25;;;;;;;8.53;4.53;;;4.60;99.90;;;;;;6156464;23;20626;-47
2022/11/19 03:47:51;;;;;;;10.50;4.47;;;4.70;99.90;;;;;;6157208;23;20170;-49
2022/11/19 03:50:34;;;;;;;7.00;5.30;;;4.60;99.90;;;;;;6156548;23;20159;-49
2022/11/19 03:52:59;;;;;;;6.97;4.97;;;4.60;99.90;;;;;;6156878;23;20149;-50
2022/11/19 03:55:32;;;;;;;6.30;4.87;;;4.60;99.90;;;;;;6156832;23;20167;-49
2022/11/19 03:58:06;;;;;;;6.17;5.17;;;4.60;99.90;;;;;;6156808;23;20188;-49
2022/11/19 04:00:32;;;;;;;8.27;5.60;;;4.60;99.90;;;;;;6156761;23;20179;-48
2022/11/19 04:02:58;;;;;;;6.97;5.10;;;4.50;99.90;;;;;;6156440;23;20159;-50
2022/11/19 04:05:24;;;;;;;7.63;5.00;;;4.60;99.90;;;;;;6156818;23;20239;-49
2022/11/19 04:07:49;;;;;;;7.07;5.03;;;4.50;99.90;;;;;;6156300;23;20496;-50
2022/11/19 04:10:15;;;;;;;6.53;5.13;;;4.50;99.90;;;;;;6130254;23;20163;-48
2022/11/19 04:12:40;;;;;;;7.03;5.53;;;4.40;99.90;;;;;;6156319;23;20247;-49
2022/11/19 04:15:10;;;;;;;9.00;5.63;;;4.40;99.90;;;;;;6156370;23;20498;-51
2022/11/19 04:17:35;;;;;;;7.47;6.07;;;4.40;99.90;;;;;;6156535;23;20164;-48
2022/11/19 04:20:01;;;;;;;7.87;5.97;;;4.50;99.90;;;;;;6156258;23;20660;-50
2022/11/19 04:22:26;;;;;;;8.93;6.47;;;4.40;99.90;;;;;;6156242;23;20195;-49
2022/11/19 04:24:52;;;;;;;10.23;6.93;;;4.40;99.90;;;;;;6156572;23;20230;-50
2022/11/19 04:27:17;;;;;;;8.77;6.30;;;4.40;99.90;;;;;;6156274;23;20147;-50
2022/11/19 04:29:43;;;;;;;10.50;6.63;;;4.30;99.90;;;;;;6156148;23;20237;-49
2022/11/19 04:32:08;;;;;;;10.77;7.47;;;4.30;99.90;;;;;;6156243;23;20242;-49
2022/11/19 04:34:34;;;;;;;9.93;7.17;;;4.30;99.90;;;;;;6156539;23;20167;-50
2022/11/19 04:37:00;;;;;;;10.87;7.77;;;4.30;99.90;;;;;;6156161;23;20239;-51
2022/11/19 04:39:25;;;;;;;11.40;7.90;;;4.20;99.90;;;;;;6156469;23;20555;-51
2022/11/19 04:41:51;;;;;;;14.73;7.53;;;4.10;99.90;;;;;;6156354;23;20230;-49
2022/11/19 04:44:16;;;;;;;11.57;7.70;;;4.20;99.90;;;;;;6156136;23;20525;-50
2022/11/19 04:46:42;;;;;;;11.13;7.87;;;4.10;99.90;;;;;;6156128;23;20157;-50
2022/11/19 04:49:08;;;;;;;13.93;9.63;;;4.10;99.90;;;;;;6156246;23;20172;-49
2022/11/19 04:51:33;;;;;;;11.17;7.93;;;4.10;99.90;;;;;;6156138;23;20258;-49
2022/11/19 04:53:59;;;;;;;13.50;9.57;;;4.10;99.90;;;;;;6156140;23;20160;-48
2022/11/19 04:56:24;;;;;;;11.80;8.20;;;4.00;99.90;;;;;;6156422;23;20161;-49
2022/11/19 04:58:50;;;;;;;15.37;9.63;;;4.00;99.90;;;;;;6155995;23;20623;-48
2022/11/19 05:01:15;;;;;;;15.33;10.17;;;4.00;99.90;;;;;;6156331;23;20187;-49
2022/11/19 05:03:41;;;;;;;17.07;10.47;;;4.00;99.90;;;;;;6156540;23;20164;-47
2022/11/19 05:06:06;;;;;;;14.87;10.77;;;3.90;99.90;;;;;;6155916;23;20551;-49
2022/11/19 05:08:32;;;;;;;14.53;10.07;;;3.90;99.90;;;;;;6156178;23;20181;-49
2022/11/19 05:10:58;;;;;;;16.50;11.23;;;3.90;99.90;;;;;;6156055;23;20182;-48
2022/11/19 05:13:23;;;;;;;15.23;10.30;;;3.90;99.90;;;;;;6156087;23;20218;-49
2022/11/19 05:15:49;;;;;;;16.73;10.77;;;3.90;99.90;;;;;;6155976;23;20163;-49
2022/11/19 05:18:14;;;;;;;16.57;10.67;;;3.90;99.90;;;;;;6155878;23;20633;-48
2022/11/19 05:20:40;;;;;;;18.90;12.03;;;3.90;99.90;;;;;;6155864;23;20256;-50
2022/11/19 05:23:06;;;;;;;16.33;10.70;;;3.90;99.90;;;;;;6155912;23;20156;-48
2022/11/19 05:25:31;;;;;;;16.87;11.57;;;3.90;99.90;;;;;;6156583;23;20180;-49
2022/11/19 05:27:57;;;;;;;16.97;11.17;;;3.90;99.90;;;;;;6155964;23;20606;-49
2022/11/19 05:30:22;;;;;;;20.03;12.77;;;3.90;99.90;;;;;;6156607;23;20639;-49
2022/11/19 05:32:48;;;;;;;21.50;11.83;;;3.90;99.90;;;;;;6156179;23;20224;-48
2022/11/19 05:35:14;;;;;;;18.57;13.37;;;3.80;99.90;;;;;;6155862;23;20157;-50
2022/11/19 05:37:39;;;;;;;20.63;12.83;;;3.80;99.90;;;;;;6156203;23;20158;-47
2022/11/19 05:40:05;;;;;;;18.27;12.67;;;3.80;99.90;;;;;;6155777;23;20171;-47
2022/11/19 05:42:31;;;;;;;22.50;15.37;;;3.80;99.90;;;;;;6156004;23;20179;-49
2022/11/19 05:44:56;;;;;;;22.73;16.60;;;3.80;99.90;;;;;;6156129;23;20156;-49
2022/11/19 05:47:22;;;;;;;27.00;18.93;;;3.70;99.90;;;;;;6156095;23;20242;-48
2022/11/19 05:49:47;;;;;;;33.73;24.43;;;3.70;99.90;;;;;;6156172;23;20170;-50
2022/11/19 05:52:13;;;;;;;22.40;15.27;;;3.70;99.90;;;;;;6155910;23;20598;-49
2022/11/19 05:54:39;;;;;;;33.83;22.47;;;3.70;99.90;;;;;;6156180;23;20602;-49
2022/11/19 05:57:04;;;;;;;27.63;19.47;;;3.70;99.90;;;;;;6156579;23;20166;-49
2022/11/19 05:59:31;;;;;;;23.40;16.00;;;3.70;99.90;;;;;;6156232;23;20207;-50
2022/11/19 06:01:57;;;;;;;26.37;17.63;;;3.60;99.90;;;;;;6155825;23;20642;-50
2022/11/19 06:04:22;;;;;;;29.50;21.33;;;3.60;99.90;;;;;;6155849;23;20188;-49
2022/11/19 06:06:48;;;;;;;32.80;20.07;;;3.60;99.90;;;;;;6156005;23;20178;-49
2022/11/19 06:09:14;;;;;;;27.77;19.60;;;3.60;99.90;;;;;;6156382;23;20182;-49
2022/11/19 06:11:51;;;;;;;26.03;16.30;;;3.60;99.90;;;;;;6157522;23;20182;-49
2022/11/19 06:14:22;;;;;;;22.83;15.07;;;3.60;99.90;;;;;;6157958;23;20273;-44
2022/11/19 06:16:52;;;;;;;28.20;20.13;;;3.60;99.90;;;;;;6157912;23;20505;-44
2022/11/19 06:19:18;;;;;;;25.00;18.33;;;3.60;99.90;;;;;;6157441;23;20187;-44
2022/11/19 06:21:44;;;;;;;31.70;22.93;;;3.60;99.90;;;;;;6157358;23;20183;-44
2022/11/19 06:24:11;;;;;;;24.07;15.53;;;3.60;99.90;;;;;;6157451;23;20160;-43
2022/11/19 06:26:37;;;;;;;26.80;17.03;;;3.60;99.90;;;;;;6157383;23;20152;-44
2022/11/19 06:29:03;;;;;;;26.97;15.97;;;3.60;99.90;;;;;;6157626;23;20175;-45
2022/11/19 06:31:28;;;;;;;29.90;19.20;;;3.60;99.90;;;;;;6157340;23;20619;-43
2022/11/19 06:33:54;;;;;;;28.23;19.40;;;3.60;99.90;;;;;;6157432;23;20165;-43
2022/11/19 06:36:20;;;;;;;25.03;17.23;;;3.60;99.90;;;;;;6157388;23;20566;-44
2022/11/19 06:38:46;;;;;;;28.73;17.53;;;3.60;99.90;;;;;;6157671;23;20187;-43
2022/11/19 06:41:12;;;;;;;26.47;18.07;;;3.60;99.90;;;;;;6131136;23;20221;-45
2022/11/19 06:43:37;;;;;;;25.70;17.63;;;3.60;99.90;;;;;;6157286;23;20155;-44
2022/11/19 06:46:03;;;;;;;25.10;16.20;;;3.60;99.90;;;;;;6157567;23;20599;-45
2022/11/19 06:48:29;;;;;;;26.67;17.57;;;3.60;99.90;;;;;;6157506;23;20171;-43
2022/11/19 06:50:54;;;;;;;26.43;16.63;;;3.60;99.90;;;;;;6157534;23;20174;-44
2022/11/19 06:53:20;;;;;;;23.83;15.83;;;3.60;99.90;;;;;;6158195;23;20165;-46
2022/11/19 06:55:46;;;;;;;23.73;16.10;;;3.60;99.90;;;;;;6157167;23;20525;-41
2022/11/19 06:58:13;;;;;;;22.27;15.90;;;3.70;99.90;;;;;;6157252;23;20178;-44
2022/11/19 07:00:39;;;;;;;24.23;14.57;;;3.60;99.90;;;;;;6156983;23;20188;-44
2022/11/19 07:03:05;;;;;;;23.47;15.53;;;3.60;99.90;;;;;;6157761;23;20649;-45
2022/11/19 07:05:31;;;;;;;24.17;16.13;;;3.70;99.90;;;;;;6157110;23;20626;-45
2022/11/19 07:07:56;;;;;;;24.90;16.13;;;3.60;99.90;;;;;;6157239;23;20174;-42
2022/11/19 07:10:22;;;;;;;27.50;17.20;;;3.70;99.90;;;;;;6157601;23;20164;-42
2022/11/19 07:12:47;;;;;;;25.33;16.67;;;3.70;99.90;;;;;;6157261;23;20191;-45
2022/11/19 07:15:13;;;;;;;26.03;15.57;;;3.70;99.90;;;;;;6157041;23;20175;-44
2022/11/19 07:17:39;;;;;;;22.70;16.50;;;3.70;99.90;;;;;;6157335;23;20209;-44
2022/11/19 07:20:05;;;;;;;24.07;15.03;;;3.70;99.90;;;;;;6157997;23;20192;-44
2022/11/19 07:22:31;;;;;;;23.47;16.73;;;3.60;99.90;;;;;;6156461;23;20152;-40
2022/11/19 07:24:57;;;;;;;24.33;16.43;;;3.60;99.90;;;;;;6157251;23;20147;-41
2022/11/19 07:27:22;;;;;;;22.03;14.83;;;3.60;99.90;;;;;;6157026;23;20161;-44
2022/11/19 07:29:48;;;;;;;23.70;15.70;;;3.60;99.90;;;;;;6156763;23;20204;-44
2022/11/19 07:32:13;;;;;;;22.57;16.00;;;3.60;99.90;;;;;;6156834;23;20159;-42
2022/11/19 07:34:39;;;;;;;22.87;15.33;;;3.60;99.90;;;;;;6156709;23;20183;-43
2022/11/19 07:37:05;;;;;;;25.27;16.90;;;3.60;99.90;;;;;;6156761;23;20160;-43
2022/11/19 07:39:30;;;;;;;27.87;20.57;;;3.60;99.90;;;;;;6156822;23;20174;-43
2022/11/19 07:44:40;;;;;;;33.70;23.20;;;3.60;99.90;;;;;;6156977;23;20525;-42
2022/11/19 07:47:07;;;;;;;29.37;19.83;;;3.60;99.90;;;;;;6157306;23;20155;-45
2022/11/19 07:49:32;;;;;;;24.47;18.33;;;3.60;99.90;;;;;;6156578;23;20172;-45
2022/11/19 07:51:58;;;;;;;24.27;15.37;;;3.60;99.90;;;;;;6155164;23;20162;-42
2022/11/19 07:54:23;;;;;;;27.27;17.73;;;3.50;99.90;;;;;;6156853;23;20178;-44
2022/11/19 07:56:49;;;;;;;27.63;17.63;;;3.50;99.90;;;;;;6156921;23;20543;-43
2022/11/19 08:02:27;;;;;;;25.93;18.77;;;3.50;99.90;;;;;;6156501;23;20157;-45
2022/11/19 08:04:53;;;;;;;30.37;18.43;;;3.50;99.90;;;;;;6130531;23;20160;-42
2022/11/19 08:07:18;;;;;;;26.60;17.97;;;3.50;99.90;;;;;;6157244;23;20159;-43
2022/11/19 08:09:44;;;;;;;25.97;18.17;;;3.50;99.90;;;;;;6156625;23;20175;-42
2022/11/19 08:12:09;;;;;;;28.53;18.37;;;3.50;99.90;;;;;;6157300;23;20606;-44
2022/11/19 08:14:35;;;;;;;29.33;19.37;;;3.50;99.90;;;;;;6156305;23;20255;-42
2022/11/19 08:19:45;;;;;;;24.13;17.80;;;3.50;99.90;;;;;;6156289;23;20695;-42
2022/11/19 08:22:11;;;;;;;27.57;15.90;;;3.50;99.90;;;;;;6156464;23;20155;-42
2022/11/19 08:24:36;;;;;;;29.97;18.60;;;3.50;99.90;;;;;;6154945;23;20170;-46
2022/11/19 08:27:04;;;;;;;25.37;18.67;;;3.50;99.90;;;;;;6157057;23;20159;-44
2022/11/19 08:29:29;;;;;;;25.50;17.40;;;3.50;99.90;;;;;;6156387;23;20177;-43
2022/11/19 08:31:55;;;;;;;23.67;16.77;;;3.50;99.90;;;;;;6130236;23;20185;-44
2022/11/19 08:34:21;;;;;;;26.97;17.63;;;3.50;99.90;;;;;;6156479;23;20179;-44
2022/11/19 08:36:47;;;;;;;25.70;18.80;;;3.50;99.90;;;;;;6156701;23;20162;-45
2022/11/19 08:39:12;;;;;;;27.40;17.80;;;3.50;99.90;;;;;;6156089;23;20177;-45
2022/11/19 08:44:22;;;;;;;26.67;16.07;;;3.40;99.90;;;;;;6156383;23;20149;-42
2022/11/19 08:46:49;;;;;;;28.67;18.83;;;3.40;99.90;;;;;;6156595;23;20190;-45
2022/11/19 08:49:14;;;;;;;25.47;17.07;;;3.40;99.90;;;;;;6156495;23;20185;-44
2022/11/19 08:51:40;;;;;;;25.53;18.53;;;3.40;99.90;;;;;;6156546;23;20160;-44
2022/11/19 08:54:05;;;;;;;27.50;19.33;;;3.40;99.90;;;;;;6156383;23;20227;-44
2022/11/19 08:56:32;;;;;;;38.97;24.33;;;3.40;99.90;;;;;;6156599;23;20561;-45
2022/11/19 08:58:57;;;;;;;31.50;18.83;;;3.50;99.90;;;;;;6156110;23;20644;-43
2022/11/19 09:01:23;;;;;;;27.70;19.40;;;3.40;99.90;;;;;;6156659;23;20186;-45
2022/11/19 09:03:48;;;;;;;37.50;21.03;;;3.50;99.90;;;;;;6156491;23;20160;-43
2022/11/19 09:06:14;;;;;;;27.10;19.03;;;3.50;99.90;;;;;;6156515;23;20212;-44
2022/11/19 09:08:40;;;;;;;31.83;21.93;;;3.40;99.90;;;;;;6154461;23;20178;-45
2022/11/19 09:11:08;;;;;;;28.10;19.00;;;3.50;99.90;;;;;;6157091;23;20210;-42
2022/11/19 09:13:34;;;;;;;28.63;19.57;;;3.40;99.90;;;;;;6156554;23;20185;-46
2022/11/19 09:15:59;;;;;;;32.27;22.33;;;3.40;99.90;;;;;;6156904;23;20150;-43
2022/11/19 09:18:25;;;;;;;25.83;18.77;;;3.40;99.90;;;;;;6156436;23;20182;-41
2022/11/19 09:20:54;;;;;;;30.63;19.43;;;3.40;99.90;;;;;;6156753;23;20186;-44
2022/11/19 09:23:21;;;;;;;28.43;19.27;;;3.50;99.90;;;;;;6156454;23;20157;-43
2022/11/19 09:26:08;;;;;;;30.17;19.33;;;3.50;99.90;;;;;;6155962;23;20158;-43
2022/11/19 09:28:34;;;;;;;30.67;20.47;;;3.50;99.90;;;;;;6156520;23;20301;-45
2022/11/19 09:31:05;;;;;;;30.90;21.87;;;3.50;99.90;;;;;;6156632;23;20633;-43
2022/11/19 09:33:34;;;;;;;35.10;20.53;;;3.50;99.90;;;;;;6156590;23;20222;-44
2022/11/19 09:35:59;;;;;;;30.77;20.70;;;3.50;99.90;;;;;;6156511;23;20484;-42
2022/11/19 09:38:25;;;;;;;28.20;17.80;;;3.50;99.90;;;;;;6156139;23;20257;-42
2022/11/19 09:40:54;;;;;;;31.10;18.80;;;3.50;99.90;;;;;;6156052;23;20185;-43
2022/11/19 09:43:42;;;;;;;32.17;19.53;;;3.60;99.90;;;;;;6156251;23;20173;-44
2022/11/19 09:46:48;;;;;;;30.37;20.90;;;3.60;99.90;;;;;;6158167;23;20139;-42
2022/11/19 09:49:24;;;;;;;32.90;21.67;;;3.60;99.90;;;;;;6156518;23;20175;-44
2022/11/19 09:52:00;;;;;;;29.63;20.57;;;3.60;99.90;;;;;;6131960;23;20217;-44
2022/11/19 09:54:26;;;;;;;30.20;20.90;;;3.60;99.90;;;;;;6158009;23;20597;-45
2022/11/19 09:56:54;;;;;;;32.27;20.87;;;3.60;99.90;;;;;;6158149;23;20159;-44
2022/11/19 09:59:36;;;;;;;31.63;20.67;;;3.50;99.90;;;;;;6158150;23;20511;-42
2022/11/19 10:02:14;;;;;;;28.27;18.73;;;3.50;99.90;;;;;;6158094;23;20163;-42
2022/11/19 10:04:39;;;;;;;30.73;20.63;;;3.50;99.90;;;;;;6158211;23;20476;-43
2022/11/19 10:07:13;;;;;;;33.97;20.03;;;3.50;99.90;;;;;;6157680;23;20152;-43
2022/11/19 10:09:56;;;;;;;36.90;21.13;;;3.50;99.90;;;;;;6157710;23;20580;-44
2022/11/19 10:12:45;;;;;;;31.13;20.77;;;3.50;99.90;;;;;;6158396;23;20139;-44
2022/11/19 10:15:21;;;;;;;30.67;19.90;;;3.60;99.90;;;;;;6157720;23;20200;-46
2022/11/19 10:18:09;;;;;;;27.97;18.77;;;3.60;99.90;;;;;;6157949;23;20201;-44
2022/11/19 10:20:56;;;;;;;33.17;20.63;;;3.60;99.90;;;;;;6156499;23;20563;-42
2022/11/19 10:23:43;;;;;;;31.03;20.30;;;3.70;99.90;;;;;;6157752;23;20145;-44
2022/11/19 10:26:14;;;;;;;32.97;19.67;;;3.70;99.90;;;;;;6157696;23;20514;-46
2022/11/19 10:28:44;;;;;;;28.90;19.33;;;3.70;99.90;;;;;;6131392;23;20205;-44
2022/11/19 10:31:34;;;;;;;30.17;19.17;;;3.70;99.90;;;;;;6157933;23;20151;-42
2022/11/19 10:34:32;;;;;;;31.53;20.00;;;3.70;99.90;;;;;;6156353;23;20143;-43
2022/11/19 10:37:06;;;;;;;32.50;21.17;;;3.80;99.90;;;;;;6157744;23;20223;-44
2022/11/19 10:39:35;;;;;;;30.10;19.73;;;3.80;99.90;;;;;;6157766;23;20504;-42
2022/11/19 10:42:22;;;;;;;31.83;20.00;;;3.90;99.90;;;;;;6157285;23;20186;-43
2022/11/19 10:45:01;;;;;;;31.00;19.60;;;3.90;99.90;;;;;;6157701;23;20476;-46
2022/11/19 10:47:46;;;;;;;31.33;20.40;;;3.90;99.90;;;;;;6157334;23;20151;-48
2022/11/19 10:50:23;;;;;;;28.03;18.97;;;3.90;99.90;;;;;;6157393;23;20148;-48
2022/11/19 10:53:10;;;;;;;32.03;19.80;;;4.00;99.90;;;;;;6157361;23;20165;-48
2022/11/19 10:55:41;;;;;;;32.23;19.63;;;4.00;99.90;;;;;;6157637;23;20150;-50
2022/11/19 10:58:09;;;;;;;30.77;20.27;;;4.00;99.90;;;;;;6157556;23;20680;-48
2022/11/19 11:00:40;;;;;;;29.67;20.50;;;4.00;99.90;;;;;;6155647;23;20186;-47
2022/11/19 11:03:23;;;;;;;30.90;19.63;;;4.00;99.90;;;;;;6156163;23;20484;-48
2022/11/19 11:05:54;;;;;;;26.73;17.53;;;4.00;99.90;;;;;;6157347;23;20208;-48
2022/11/19 11:08:22;;;;;;;28.30;18.53;;;4.00;99.90;;;;;;6155631;23;20250;-48
2022/11/19 11:10:51;;;;;;;24.97;14.47;;;4.00;99.90;;;;;;6155584;23;20166;-48
2022/11/19 11:16:39;;;;;;;27.50;17.70;;;3.90;99.90;;;;;;6157923;23;20205;-49
2022/11/19 11:19:27;;;;;;;27.90;18.30;;;3.90;99.90;;;;;;6157428;23;20189;-47
2022/11/19 11:21:56;;;;;;;26.93;17.30;;;3.90;99.90;;;;;;6157574;23;20169;-48
2022/11/19 11:24:34;;;;;;;25.83;17.03;;;3.90;99.90;;;;;;6157119;23;20162;-47
2022/11/19 11:27:32;;;;;;;27.93;18.13;;;3.90;99.90;;;;;;6157647;23;20154;-47
2022/11/19 11:30:16;;;;;;;24.03;15.97;;;3.90;99.90;;;;;;6157198;23;20420;-49
2022/11/19 11:32:43;;;;;;;24.43;17.33;;;3.90;99.90;;;;;;6157801;23;20140;-47
2022/11/19 11:35:30;;;;;;;28.83;17.87;;;4.00;99.90;;;;;;6156944;23;20163;-48
2022/11/19 11:38:02;;;;;;;30.20;18.60;;;4.00;99.90;;;;;;6157627;23;20174;-46
2022/11/19 11:40:29;;;;;;;27.90;17.23;;;4.00;99.90;;;;;;6156636;23;20203;-47
2022/11/19 11:42:58;;;;;;;25.73;17.10;;;4.00;99.90;;;;;;6157001;23;20163;-48
2022/11/19 11:45:32;;;;;;;23.50;15.90;;;4.00;99.90;;;;;;6130817;23;20591;-48
2022/11/19 11:48:08;;;;;;;27.83;18.60;;;4.00;99.90;;;;;;6156767;23;20174;-47
2022/11/19 11:50:36;;;;;;;25.63;16.77;;;4.00;99.90;;;;;;6155343;23;20158;-48
2022/11/19 11:53:08;;;;;;;26.27;17.13;;;4.00;99.90;;;;;;6130753;23;20168;-47
2022/11/19 11:55:37;;;;;;;26.33;16.67;;;4.00;99.90;;;;;;6156472;23;20151;-48
2022/11/19 11:58:25;;;;;;;30.37;18.93;;;4.00;99.90;;;;;;6157152;23;20179;-48
2022/11/19 12:00:54;;;;;;;28.33;19.27;;;4.00;99.90;;;;;;6155112;23;20211;-48
2022/11/19 12:03:21;;;;;;;26.87;18.23;;;4.00;99.90;;;;;;6156647;23;20162;-48
2022/11/19 12:06:01;;;;;;;27.50;17.27;;;3.90;99.90;;;;;;6156719;23;20158;-49
2022/11/19 12:08:45;;;;;;;27.27;17.23;;;4.00;99.90;;;;;;6154781;23;20183;-48
2022/11/19 12:11:20;;;;;;;24.40;15.53;;;4.00;99.90;;;;;;6156634;23;20151;-47
2022/11/19 12:14:03;;;;;;;29.27;19.13;;;4.00;99.90;;;;;;6156366;23;20249;-49
2022/11/19 12:17:04;;;;;;;26.07;17.17;;;4.00;99.90;;;;;;6130426;23;20163;-47
2022/11/19 12:19:49;;;;;;;30.07;18.37;;;4.00;99.90;;;;;;6129322;23;20190;-49
2022/11/19 12:22:44;;;;;;;26.20;18.07;;;4.00;99.90;;;;;;6130514;23;20163;-47
2022/11/19 12:25:44;;;;;;;23.87;17.10;;;4.00;99.90;;;;;;6130599;23;20159;-46
2022/11/19 12:28:31;;;;;;;26.53;17.10;;;4.00;99.90;;;;;;6156401;23;20178;-49
2022/11/19 12:31:00;;;;;;;28.80;17.17;;;4.00;99.90;;;;;;6156519;23;20218;-50
2022/11/19 12:33:36;;;;;;;26.77;18.33;;;4.00;99.90;;;;;;6156576;23;20214;-48
2022/11/19 12:36:41;;;;;;;27.93;18.33;;;4.00;99.90;;;;;;6155039;23;20201;-47
2022/11/19 12:39:44;;;;;;;26.53;19.80;;;3.90;99.90;;;;;;6156443;23;20266;-49
2022/11/19 12:42:24;;;;;;;29.30;20.67;;;3.90;99.90;;;;;;6130285;23;20204;-41
2022/11/19 12:45:16;;;;;;;26.17;17.00;;;3.90;99.90;;;;;;6156408;23;20214;-40
2022/11/19 12:48:02;;;;;;;25.67;16.93;;;3.90;99.90;;;;;;6156411;23;20173;-42
2022/11/19 12:50:46;;;;;;;25.87;17.50;;;3.90;99.90;;;;;;6156143;23;20147;-40
2022/11/19 12:53:29;;;;;;;25.53;16.37;;;3.90;99.90;;;;;;6156481;23;20232;-41
2022/11/19 12:56:17;;;;;;;27.17;17.70;;;3.90;99.90;;;;;;6156695;23;20210;-39
2022/11/19 12:59:14;;;;;;;27.77;17.97;;;3.90;99.90;;;;;;6155906;23;20263;-41
2022/11/19 13:01:44;;;;;;;24.87;16.57;;;3.90;99.90;;;;;;6154839;23;20525;-43
2022/11/19 13:04:17;;;;;;;27.57;18.23;;;3.90;99.90;;;;;;6156025;23;20545;-41
2022/11/19 13:06:54;;;;;;;29.03;19.07;;;3.90;99.90;;;;;;6154930;23;20144;-41
2022/11/19 13:09:37;;;;;;;27.33;19.17;;;3.90;99.90;;;;;;6156266;23;20625;-43
2022/11/19 13:12:17;;;;;;;29.33;19.90;;;3.90;99.90;;;;;;6156393;23;20154;-42
2022/11/19 13:14:54;;;;;;;27.03;17.67;;;3.90;99.90;;;;;;6156272;23;20533;-43
2022/11/19 13:17:33;;;;;;;26.17;16.90;;;3.90;99.90;;;;;;6156293;23;20147;-43
2022/11/19 13:20:10;;;;;;;28.80;17.00;;;3.90;99.90;;;;;;6157224;23;20175;-43
2022/11/19 13:22:41;;;;;;;25.23;17.60;;;3.90;99.90;;;;;;6158093;23;20640;-41
2022/11/19 13:25:25;;;;;;;26.30;16.60;;;3.90;99.90;;;;;;6158135;23;20214;-44
2022/11/19 13:27:53;;;;;;;24.80;17.03;;;3.90;99.90;;;;;;6156307;23;20186;-43
2022/11/19 13:30:28;;;;;;;24.67;15.90;;;3.90;99.90;;;;;;6157819;23;20161;-43
2022/11/19 13:33:35;;;;;;;24.83;15.73;;;3.90;99.90;;;;;;6157906;23;20198;-42
2022/11/19 13:36:33;;;;;;;24.47;15.00;;;3.90;99.90;;;;;;6039347;23;20174;-43